Time;durP1;ratioP1;P1;durP2;ratioP2;P2;SDS_P1;SDS_P2;PMS_P1;PMS_P2;Temp;Humidity;BMP_temperature;BMP_pressure;BME280_temperature;BME280_humidity;BME280_pressure;Samples;Min_cycle;Max_cycle;Signal;HPM_P1;HPM_P2
2022/08/21 00:01:24;;;;;;;12.67;4.43;;;17.40;99.90;;;;;;5000157;28;20261;-83
2022/08/21 00:03:50;;;;;;;10.77;3.83;;;17.30;99.90;;;;;;4999040;28;20213;-83
2022/08/21 00:06:16;;;;;;;9.93;5.30;;;17.20;99.90;;;;;;4998520;28;20566;-83
2022/08/21 00:08:42;;;;;;;12.83;4.10;;;17.10;99.90;;;;;;4999252;28;20266;-83
2022/08/21 00:11:08;;;;;;;11.93;4.17;;;17.10;99.90;;;;;;4999511;28;20636;-83
2022/08/21 00:13:35;;;;;;;10.83;3.97;;;17.20;99.90;;;;;;4999340;28;20186;-83
2022/08/21 00:16:01;;;;;;;8.20;4.33;;;17.00;99.90;;;;;;4999530;28;20202;-83
2022/08/21 00:18:27;;;;;;;13.50;4.90;;;16.90;99.90;;;;;;5000026;28;20181;-83
2022/08/21 00:20:53;;;;;;;13.27;4.60;;;16.90;99.90;;;;;;4998182;28;20167;-82
2022/08/21 00:23:19;;;;;;;12.23;4.67;;;16.80;99.90;;;;;;4996268;28;20198;-82
2022/08/21 00:25:45;;;;;;;14.60;4.70;;;16.70;99.90;;;;;;4998501;28;20198;-83
2022/08/21 00:28:12;;;;;;;16.63;5.10;;;16.90;99.90;;;;;;5016866;28;20179;-82
2022/08/21 00:30:39;;;;;;;11.43;4.33;;;16.90;99.90;;;;;;4998848;28;20189;-82
2022/08/21 00:33:08;;;;;;;11.13;4.27;;;16.70;99.90;;;;;;4998628;28;20179;-82
2022/08/21 00:35:37;;;;;;;10.10;4.00;;;16.60;99.90;;;;;;4998640;28;20199;-82
2022/08/21 00:38:08;;;;;;;12.47;4.33;;;16.70;99.90;;;;;;4998883;28;20664;-82
2022/08/21 00:40:44;;;;;;;9.50;4.40;;;16.80;99.90;;;;;;4997916;28;20171;-82
2022/08/21 00:43:12;;;;;;;14.43;4.23;;;16.80;99.90;;;;;;4998397;28;20198;-82
2022/08/21 00:45:38;;;;;;;14.23;4.20;;;16.70;99.90;;;;;;4998655;28;20217;-82
2022/08/21 00:48:04;;;;;;;9.57;3.93;;;16.70;99.90;;;;;;4998669;28;20203;-82
2022/08/21 00:50:34;;;;;;;13.03;4.10;;;16.70;99.90;;;;;;4998560;28;20174;-83
2022/08/21 00:53:04;;;;;;;12.90;4.40;;;16.70;99.90;;;;;;4998359;28;20286;-82
2022/08/21 00:55:31;;;;;;;14.93;4.40;;;16.80;99.90;;;;;;4998303;28;20191;-82
2022/08/21 00:58:00;;;;;;;7.87;4.33;;;16.70;99.90;;;;;;5000396;28;20248;-83
2022/08/21 01:00:34;;;;;;;11.03;4.17;;;16.90;99.90;;;;;;5003145;28;20171;-83
2022/08/21 01:03:02;;;;;;;13.20;4.77;;;16.80;99.90;;;;;;5003092;28;20534;-83
2022/08/21 01:05:28;;;;;;;15.63;4.63;;;16.70;99.90;;;;;;5003296;28;20194;-83
2022/08/21 01:07:56;;;;;;;12.03;4.60;;;16.90;99.90;;;;;;5003518;28;20509;-83
2022/08/21 01:10:22;;;;;;;11.63;4.47;;;16.80;99.90;;;;;;5005531;28;20207;-82
2022/08/21 01:12:51;;;;;;;11.47;4.60;;;16.70;99.90;;;;;;5004415;28;20201;-83
2022/08/21 01:15:18;;;;;;;11.67;4.87;;;16.80;99.90;;;;;;5002923;28;20624;-82
2022/08/21 01:17:44;;;;;;;9.57;3.93;;;16.80;99.90;;;;;;5003796;28;20185;-83
2022/08/21 01:20:11;;;;;;;9.30;4.47;;;16.80;99.90;;;;;;5001131;28;20179;-83
2022/08/21 01:22:37;;;;;;;11.57;4.87;;;16.90;99.90;;;;;;5001533;28;20202;-83
2022/08/21 01:25:05;;;;;;;13.97;5.00;;;16.80;99.90;;;;;;5001918;28;20174;-83
2022/08/21 01:27:31;;;;;;;9.77;3.70;;;16.70;99.90;;;;;;5003239;28;20174;-83
2022/08/21 01:30:07;;;;;;;13.90;4.70;;;16.90;99.90;;;;;;5001407;28;20722;-83
2022/08/21 01:32:33;;;;;;;13.57;4.97;;;16.80;99.90;;;;;;4999826;28;20182;-83
2022/08/21 01:34:59;;;;;;;16.10;4.73;;;16.90;99.90;;;;;;5000120;28;20722;-83
2022/08/21 01:37:25;;;;;;;8.40;4.00;;;16.90;99.90;;;;;;5000426;28;20172;-83
2022/08/21 01:39:51;;;;;;;11.03;4.17;;;17.00;99.90;;;;;;4998179;28;20185;-83
2022/08/21 01:42:17;;;;;;;13.03;4.60;;;16.80;99.90;;;;;;4999792;28;20167;-84
2022/08/21 01:44:43;;;;;;;6.73;4.30;;;16.80;99.90;;;;;;5000177;28;20208;-83
2022/08/21 01:47:11;;;;;;;9.77;4.50;;;16.80;99.90;;;;;;5017805;28;20183;-84
2022/08/21 01:49:38;;;;;;;11.00;4.23;;;16.80;99.90;;;;;;4999867;28;20170;-83
2022/08/21 01:52:05;;;;;;;11.57;4.30;;;16.70;99.90;;;;;;4999015;28;20202;-84
2022/08/21 01:54:31;;;;;;;13.07;4.70;;;16.70;99.90;;;;;;5000342;28;20179;-83
2022/08/21 01:56:58;;;;;;;11.53;4.67;;;16.90;99.90;;;;;;4999432;28;20289;-83
2022/08/21 01:59:25;;;;;;;9.93;4.37;;;16.90;99.90;;;;;;5000079;28;20168;-83
2022/08/21 02:01:50;;;;;;;10.33;4.97;;;16.90;99.90;;;;;;4998564;28;20203;-84
2022/08/21 02:04:16;;;;;;;15.17;4.47;;;17.00;99.90;;;;;;4999075;28;20198;-84
2022/08/21 02:06:42;;;;;;;15.97;5.47;;;17.10;99.90;;;;;;4998765;28;20599;-83
2022/08/21 02:09:10;;;;;;;17.37;5.10;;;16.80;99.90;;;;;;4998724;28;20654;-83
2022/08/21 02:11:40;;;;;;;9.83;4.90;;;16.80;99.90;;;;;;4999010;28;20167;-83
2022/08/21 02:14:06;;;;;;;8.37;4.73;;;17.00;99.90;;;;;;4998859;28;20523;-83
2022/08/21 02:16:33;;;;;;;9.13;4.70;;;16.90;99.90;;;;;;4999148;28;20663;-83
2022/08/21 02:18:59;;;;;;;12.70;5.23;;;16.90;99.90;;;;;;4999438;28;20178;-83
2022/08/21 02:21:25;;;;;;;13.47;5.60;;;17.00;99.90;;;;;;4998647;28;20179;-83
2022/08/21 02:23:50;;;;;;;12.80;5.20;;;16.90;99.90;;;;;;4998528;28;20190;-82
2022/08/21 02:26:16;;;;;;;16.93;5.20;;;16.90;99.90;;;;;;5000200;28;20197;-82
2022/08/21 02:28:42;;;;;;;9.90;4.97;;;16.80;99.90;;;;;;5002997;28;20174;-83
2022/08/21 02:31:08;;;;;;;14.03;5.20;;;16.80;99.90;;;;;;5002132;28;20186;-82
2022/08/21 02:33:34;;;;;;;9.90;5.00;;;16.80;99.90;;;;;;5002436;28;20766;-83
2022/08/21 02:36:01;;;;;;;12.27;4.90;;;16.70;99.90;;;;;;5020081;28;20190;-83
2022/08/21 02:38:33;;;;;;;10.63;4.67;;;16.70;99.90;;;;;;5002588;28;20541;-82
2022/08/21 02:41:00;;;;;;;13.83;5.70;;;16.70;99.90;;;;;;5002313;28;20181;-83
2022/08/21 02:43:27;;;;;;;7.03;4.80;;;16.70;99.90;;;;;;5003030;28;20206;-83
2022/08/21 02:45:55;;;;;;;12.53;5.80;;;16.60;99.90;;;;;;5002087;28;20670;-83
2022/08/21 02:48:24;;;;;;;11.70;5.60;;;16.50;99.90;;;;;;5002447;28;20518;-83
2022/08/21 02:50:55;;;;;;;19.03;5.70;;;16.40;99.90;;;;;;5002287;28;20623;-83
2022/08/21 02:53:22;;;;;;;14.27;5.37;;;16.10;99.90;;;;;;5001666;28;20651;-82
2022/08/21 02:55:50;;;;;;;13.07;5.57;;;16.10;99.90;;;;;;5001500;28;20214;-83
2022/08/21 02:58:20;;;;;;;11.73;5.50;;;16.20;99.90;;;;;;5001501;28;20163;-83
2022/08/21 03:00:46;;;;;;;13.73;5.70;;;16.00;99.90;;;;;;5001666;28;20173;-83
2022/08/21 03:03:14;;;;;;;16.33;5.77;;;16.10;99.90;;;;;;5003524;28;20288;-83
2022/08/21 03:05:40;;;;;;;13.80;6.70;;;16.00;99.90;;;;;;5003617;28;20239;-82
2022/08/21 03:08:10;;;;;;;16.20;6.13;;;15.80;99.90;;;;;;5004427;28;20167;-82
2022/08/21 03:10:40;;;;;;;15.50;6.60;;;15.70;99.90;;;;;;5006075;28;20197;-83
2022/08/21 03:13:06;;;;;;;17.13;5.80;;;15.90;99.90;;;;;;5003538;28;20241;-83
2022/08/21 03:15:32;;;;;;;14.27;6.17;;;15.80;99.90;;;;;;5020011;28;20217;-83
2022/08/21 03:17:59;;;;;;;10.27;6.70;;;15.60;99.90;;;;;;5000363;28;20208;-82
2022/08/21 03:20:27;;;;;;;15.40;6.50;;;15.60;99.90;;;;;;5000027;28;20646;-83
2022/08/21 03:22:54;;;;;;;10.00;5.40;;;15.60;99.90;;;;;;4999561;28;20337;-83
2022/08/21 03:25:22;;;;;;;14.93;5.87;;;15.60;99.90;;;;;;4999789;28;20227;-82
2022/08/21 03:27:48;;;;;;;13.50;5.83;;;15.60;99.90;;;;;;5000480;28;20178;-82
2022/08/21 03:30:15;;;;;;;19.10;7.10;;;15.80;99.90;;;;;;4999783;28;20180;-82
2022/08/21 03:32:40;;;;;;;17.17;7.00;;;15.70;99.90;;;;;;4999902;28;20194;-83
2022/08/21 03:35:07;;;;;;;15.17;6.63;;;15.60;99.90;;;;;;4999649;28;20171;-82
2022/08/21 03:37:33;;;;;;;20.07;6.93;;;15.70;99.90;;;;;;4999414;28;20213;-83
2022/08/21 03:39:59;;;;;;;13.43;5.40;;;15.60;99.90;;;;;;4999955;28;20181;-83
2022/08/21 03:42:25;;;;;;;11.13;5.60;;;15.70;99.90;;;;;;4999597;28;20184;-82
2022/08/21 03:44:51;;;;;;;10.57;5.57;;;15.50;99.90;;;;;;5003011;28;20211;-83
2022/08/21 03:47:17;;;;;;;15.30;6.10;;;15.50;99.90;;;;;;5003948;28;20225;-83
2022/08/21 03:49:43;;;;;;;12.70;6.33;;;15.50;99.90;;;;;;5004105;28;20178;-83
2022/08/21 03:52:09;;;;;;;12.93;6.13;;;15.50;99.90;;;;;;5003996;28;20263;-83
2022/08/21 03:54:34;;;;;;;11.90;6.10;;;15.50;99.90;;;;;;5002646;28;20175;-84
2022/08/21 03:57:02;;;;;;;23.30;6.40;;;15.40;99.90;;;;;;5001399;28;20190;-83
2022/08/21 03:59:27;;;;;;;20.13;6.67;;;15.50;99.90;;;;;;5001638;28;20266;-84
2022/08/21 04:01:56;;;;;;;18.83;6.57;;;15.50;99.90;;;;;;5001322;28;20194;-83
2022/08/21 04:04:22;;;;;;;13.90;6.57;;;15.30;99.90;;;;;;5001017;28;20268;-83
2022/08/21 04:06:47;;;;;;;14.97;6.50;;;15.20;99.90;;;;;;5018693;28;20670;-82
2022/08/21 04:09:13;;;;;;;14.37;6.80;;;15.30;99.90;;;;;;5001197;28;20229;-83
2022/08/21 04:11:39;;;;;;;14.30;6.73;;;15.40;99.90;;;;;;5000961;28;20527;-83
2022/08/21 04:14:05;;;;;;;16.33;7.60;;;15.40;99.90;;;;;;5001064;28;20263;-83
2022/08/21 04:16:30;;;;;;;18.43;7.23;;;15.40;99.90;;;;;;5000663;28;20213;-83
2022/08/21 04:18:56;;;;;;;11.90;7.57;;;15.20;99.90;;;;;;5000702;28;20185;-84
2022/08/21 04:21:23;;;;;;;15.93;8.30;;;15.20;99.90;;;;;;5000221;28;20231;-83
2022/08/21 04:23:49;;;;;;;14.90;7.00;;;15.10;99.90;;;;;;4999946;28;20190;-82
2022/08/21 04:26:18;;;;;;;18.87;8.27;;;15.10;99.90;;;;;;4999769;28;20186;-83
2022/08/21 04:28:44;;;;;;;23.23;8.27;;;15.00;99.90;;;;;;5000331;28;20582;-83
2022/08/21 04:31:09;;;;;;;16.67;7.97;;;15.00;99.90;;;;;;5000327;28;20217;-83
2022/08/21 04:33:35;;;;;;;19.07;7.40;;;15.00;99.90;;;;;;5000306;28;20633;-83
2022/08/21 04:36:01;;;;;;;17.40;7.43;;;15.00;99.90;;;;;;5000338;28;20662;-83
2022/08/21 04:38:27;;;;;;;14.10;8.47;;;15.00;99.90;;;;;;5000000;28;20182;-83
2022/08/21 04:40:53;;;;;;;20.20;9.10;;;15.00;99.90;;;;;;5016868;28;20526;-84
2022/08/21 04:43:21;;;;;;;21.90;8.30;;;15.00;99.90;;;;;;4999314;28;20209;-83
2022/08/21 04:45:48;;;;;;;18.17;8.87;;;15.10;99.90;;;;;;4999676;28;20333;-83
2022/08/21 04:48:17;;;;;;;18.80;8.07;;;15.10;99.90;;;;;;5000302;28;20185;-83
2022/08/21 04:50:49;;;;;;;19.87;9.00;;;15.10;99.90;;;;;;4998595;28;20660;-83
2022/08/21 04:53:20;;;;;;;15.27;9.00;;;15.10;99.90;;;;;;4999125;28;20324;-82
2022/08/21 04:55:47;;;;;;;20.60;9.63;;;15.10;99.90;;;;;;4999254;28;20701;-83
2022/08/21 04:58:17;;;;;;;16.97;9.53;;;15.10;99.90;;;;;;4998832;28;20175;-83
2022/08/21 05:00:44;;;;;;;18.87;10.47;;;15.10;99.90;;;;;;4999307;28;20178;-82
2022/08/21 05:03:12;;;;;;;17.10;9.50;;;15.10;99.90;;;;;;4999124;28;20200;-83
2022/08/21 05:05:39;;;;;;;18.40;10.20;;;15.30;99.90;;;;;;4999313;28;20245;-83
2022/08/21 05:08:08;;;;;;;21.43;11.07;;;15.40;99.90;;;;;;4998899;28;20167;-83
2022/08/21 05:10:34;;;;;;;22.60;10.30;;;15.40;99.90;;;;;;5016412;28;20210;-83
2022/08/21 05:13:00;;;;;;;16.50;10.40;;;15.60;99.90;;;;;;4999062;28;20175;-82
2022/08/21 05:15:27;;;;;;;21.93;11.20;;;15.60;99.90;;;;;;4998525;28;20701;-82
2022/08/21 05:17:52;;;;;;;21.50;11.33;;;15.60;99.90;;;;;;4998641;28;20170;-82
2022/08/21 05:20:19;;;;;;;22.53;10.43;;;15.70;99.90;;;;;;4998906;28;20184;-82
2022/08/21 05:22:45;;;;;;;23.03;10.27;;;15.90;99.90;;;;;;4997562;28;20180;-83
2022/08/21 05:25:11;;;;;;;17.10;10.30;;;16.00;99.90;;;;;;5015076;28;20176;-82
2022/08/21 05:27:38;;;;;;;18.57;10.23;;;15.90;99.90;;;;;;4997954;28;20174;-82
2022/08/21 05:30:07;;;;;;;16.63;9.77;;;15.90;99.90;;;;;;4997431;28;20639;-82
2022/08/21 05:32:33;;;;;;;17.47;9.30;;;15.90;99.90;;;;;;4997863;28;20278;-83
2022/08/21 05:34:59;;;;;;;24.57;10.33;;;16.10;99.90;;;;;;4998628;28;20206;-82
2022/08/21 05:37:25;;;;;;;21.63;10.67;;;16.30;99.90;;;;;;4998100;28;20193;-83
2022/08/21 05:39:51;;;;;;;16.83;8.83;;;16.20;99.90;;;;;;4997226;28;20173;-83
2022/08/21 05:42:16;;;;;;;26.40;10.07;;;16.20;99.90;;;;;;4997576;28;20171;-83
2022/08/21 05:44:42;;;;;;;16.13;8.93;;;16.30;99.90;;;;;;4997878;28;20675;-82
2022/08/21 05:47:09;;;;;;;16.90;8.70;;;16.40;99.90;;;;;;4998326;28;20814;-82
2022/08/21 05:49:36;;;;;;;21.37;9.40;;;16.40;99.90;;;;;;5000242;28;20167;-83
2022/08/21 05:52:03;;;;;;;19.30;8.30;;;16.60;99.90;;;;;;4999730;28;20535;-83
2022/08/21 05:54:29;;;;;;;19.70;8.80;;;16.80;99.90;;;;;;4997501;28;20178;-82
2022/08/21 05:56:55;;;;;;;16.83;7.90;;;16.90;99.90;;;;;;4997186;28;20195;-84
2022/08/21 05:59:20;;;;;;;14.97;7.40;;;17.10;99.90;;;;;;4997408;28;20647;-82
2022/08/21 06:01:46;;;;;;;15.77;7.53;;;17.20;99.90;;;;;;4996739;28;20167;-82
2022/08/21 06:04:13;;;;;;;15.93;7.83;;;17.30;99.90;;;;;;4997655;28;20325;-82
2022/08/21 06:06:39;;;;;;;16.70;7.03;;;17.40;99.90;;;;;;4997051;28;20190;-82
2022/08/21 06:09:05;;;;;;;18.83;8.20;;;17.70;99.90;;;;;;4998592;28;20175;-83
2022/08/21 06:11:32;;;;;;;72.57;36.07;;;17.90;99.90;;;;;;4997686;28;20185;-83
2022/08/21 06:13:59;;;;;;;22.33;10.97;;;18.20;99.90;;;;;;4997043;28;20179;-83
2022/08/21 06:16:26;;;;;;;13.35;6.20;;;18.50;99.90;;;;;;4997277;28;20202;-83
2022/08/21 06:18:52;;;;;;;10.93;5.60;;;18.70;99.90;;;;;;4996837;28;20174;-83
2022/08/21 06:21:18;;;;;;;11.52;5.80;;;19.10;99.90;;;;;;4996997;28;20635;-83
2022/08/21 06:23:43;;;;;;;16.08;5.78;;;19.50;99.90;;;;;;4996120;28;20198;-84
2022/08/21 06:26:11;;;;;;;14.82;5.40;;;19.80;99.90;;;;;;4997014;28;20572;-83
2022/08/21 06:28:37;;;;;;;12.10;4.88;;;19.90;99.90;;;;;;4998561;28;20183;-83
2022/08/21 06:31:23;;;;;;;12.57;5.22;;;20.20;99.90;;;;;;4998509;28;20274;-84
2022/08/21 06:33:50;;;;;;;16.52;5.53;;;20.30;99.90;;;;;;5017123;28;20177;-83
2022/08/21 06:36:16;;;;;;;12.07;5.45;;;20.50;99.90;;;;;;4999983;28;20229;-84
2022/08/21 06:38:42;;;;;;;11.65;5.85;;;21.00;99.90;;;;;;4999492;28;20631;-86
2022/08/21 06:41:08;;;;;;;13.07;5.10;;;21.40;99.90;;;;;;4999004;28;20183;-85
2022/08/21 06:43:33;;;;;;;11.38;5.38;;;21.40;99.90;;;;;;4999526;28;20194;-84
2022/08/21 06:45:59;;;;;;;12.63;5.50;;;21.40;99.90;;;;;;4999517;28;20277;-84
2022/08/21 06:48:25;;;;;;;10.32;5.22;;;21.40;99.90;;;;;;4999821;28;20171;-85
2022/08/21 06:50:51;;;;;;;11.98;5.15;;;21.90;99.90;;;;;;5000118;28;20179;-85
2022/08/21 06:53:20;;;;;;;8.48;4.35;;;22.10;99.90;;;;;;5001547;28;20186;-85
2022/08/21 06:55:47;;;;;;;11.45;4.28;;;22.30;99.90;;;;;;5002230;28;20199;-85
2022/08/21 06:58:14;;;;;;;11.23;5.43;;;22.10;99.90;;;;;;5003662;28;20202;-85
2022/08/21 07:00:43;;;;;;;9.73;4.60;;;22.50;99.90;;;;;;5001136;28;20208;-84
2022/08/21 07:03:18;;;;;;;8.93;4.45;;;22.60;99.90;;;;;;5019460;28;20209;-85
2022/08/21 07:05:43;;;;;;;13.73;4.45;;;22.60;99.90;;;;;;5001393;28;20186;-84
2022/08/21 07:08:09;;;;;;;10.70;4.55;;;22.80;99.90;;;;;;5001670;28;20177;-85
2022/08/21 07:10:35;;;;;;;10.85;4.25;;;22.90;99.90;;;;;;5001107;28;20667;-84
2022/08/21 07:13:01;;;;;;;10.55;4.00;;;23.40;99.90;;;;;;5019290;28;20631;-84
2022/08/21 07:15:30;;;;;;;10.25;3.85;;;23.20;99.90;;;;;;5003549;28;20683;-84
2022/08/21 07:17:57;;;;;;;4.95;2.97;;;23.40;99.90;;;;;;5004427;28;20175;-85
2022/08/21 07:20:22;;;;;;;7.35;2.97;;;23.30;99.90;;;;;;5006574;28;20178;-85
2022/08/21 07:22:48;;;;;;;7.45;2.80;;;23.40;99.90;;;;;;5006431;28;20208;-84
2022/08/21 07:25:14;;;;;;;7.82;2.97;;;23.60;99.90;;;;;;5005671;28;20205;-85
2022/08/21 07:27:39;;;;;;;13.05;3.33;;;23.80;99.90;;;;;;5004365;28;20238;-84
2022/08/21 07:30:06;;;;;;;8.50;2.97;;;24.50;99.90;;;;;;5022308;28;20175;-84
2022/08/21 07:32:32;;;;;;;6.38;2.25;;;24.50;99.90;;;;;;5003339;28;20213;-85
2022/08/21 07:34:57;;;;;;;6.05;2.65;;;24.50;99.90;;;;;;5004626;28;20163;-85
2022/08/21 07:37:24;;;;;;;4.93;2.33;;;24.30;99.90;;;;;;5023055;28;20206;-82
2022/08/21 07:39:50;;;;;;;6.93;2.60;;;25.10;99.20;;;;;;5006143;28;20619;-83
2022/08/21 07:42:17;;;;;;;7.35;2.58;;;25.00;99.50;;;;;;5007850;28;20217;-84
2022/08/21 07:44:43;;;;;;;5.20;2.25;;;24.80;99.60;;;;;;5006613;28;20592;-83
2022/08/21 07:47:08;;;;;;;9.32;2.53;;;25.00;98.60;;;;;;5006401;28;20186;-84
2022/08/21 07:49:34;;;;;;;7.57;2.50;;;24.90;98.60;;;;;;5006494;28;20175;-84
2022/08/21 07:52:01;;;;;;;8.50;2.92;;;25.20;98.60;;;;;;5008229;28;20655;-83
2022/08/21 07:54:26;;;;;;;8.80;3.47;;;25.00;99.20;;;;;;5007480;28;20246;-83
2022/08/21 07:56:52;;;;;;;9.52;3.30;;;24.70;99.40;;;;;;5006066;28;20214;-83
2022/08/21 07:59:18;;;;;;;8.63;2.88;;;25.10;98.80;;;;;;5023898;28;20171;-83
2022/08/21 08:01:44;;;;;;;9.55;3.00;;;24.90;98.90;;;;;;5005405;28;20175;-82
2022/08/21 08:04:09;;;;;;;8.02;3.20;;;24.90;97.90;;;;;;5024446;28;20187;-83
2022/08/21 08:06:35;;;;;;;7.72;3.03;;;25.30;98.60;;;;;;5021796;28;20293;-83
2022/08/21 08:09:03;;;;;;;7.38;3.08;;;25.50;97.40;;;;;;5021852;28;20190;-84
2022/08/21 08:11:29;;;;;;;12.50;3.25;;;25.70;96.70;;;;;;5005491;28;20262;-82
2022/08/21 08:13:57;;;;;;;8.02;3.33;;;25.50;97.90;;;;;;5006097;28;20623;-83
2022/08/21 08:16:22;;;;;;;10.88;3.70;;;25.70;97.70;;;;;;5006564;28;20257;-84
2022/08/21 08:18:48;;;;;;;8.27;3.47;;;26.10;97.00;;;;;;5006897;28;20186;-83
2022/08/21 08:21:14;;;;;;;10.10;4.22;;;25.90;97.60;;;;;;5007863;28;20178;-83
2022/08/21 08:23:40;;;;;;;9.15;3.78;;;25.80;96.80;;;;;;5006098;28;20282;-84
2022/08/21 08:26:06;;;;;;;11.00;3.80;;;26.10;97.50;;;;;;5007821;28;20565;-84
2022/08/21 08:28:33;;;;;;;9.00;3.60;;;26.30;97.10;;;;;;5007539;28;20175;-83
2022/08/21 08:30:59;;;;;;;12.38;4.57;;;26.80;97.10;;;;;;5003240;28;20238;-84
2022/08/21 08:33:25;;;;;;;12.02;5.03;;;26.50;97.40;;;;;;5000386;28;20174;-83
2022/08/21 08:35:51;;;;;;;10.13;5.28;;;26.50;96.50;;;;;;4996348;28;20572;-83
2022/08/21 08:38:20;;;;;;;12.82;5.38;;;26.80;96.20;;;;;;4996682;28;20179;-83
2022/08/21 08:41:13;;;;;;;10.07;5.43;;;25.40;97.60;;;;;;4996510;28;20328;-83
2022/08/21 08:43:43;;;;;;;12.00;4.85;;;25.90;97.20;;;;;;4996142;28;20195;-85
2022/08/21 08:46:18;;;;;;;17.23;5.45;;;26.30;96.40;;;;;;4996136;28;20195;-83
2022/08/21 08:48:58;;;;;;;10.85;4.88;;;26.60;96.60;;;;;;4996241;28;20175;-83
2022/08/21 08:51:26;;;;;;;11.68;5.03;;;26.60;96.30;;;;;;4995854;28;20170;-84
2022/08/21 08:53:59;;;;;;;10.82;4.60;;;26.30;96.20;;;;;;4995908;28;20177;-83
2022/08/21 08:56:31;;;;;;;12.18;5.30;;;26.80;95.80;;;;;;4995908;28;20686;-83
2022/08/21 08:59:10;;;;;;;9.68;5.65;;;26.20;96.70;;;;;;4996090;28;20179;-83
2022/08/21 09:01:35;;;;;;;12.60;5.35;;;26.60;96.80;;;;;;4995707;28;20281;-84
2022/08/21 09:04:01;;;;;;;15.23;6.30;;;26.60;96.10;;;;;;4995828;28;20848;-84
2022/08/21 09:06:46;;;;;;;10.68;5.65;;;27.00;95.40;;;;;;4995962;28;20195;-83
2022/08/21 09:09:31;;;;;;;14.38;5.00;;;26.40;94.80;;;;;;4995691;28;20178;-85
2022/08/21 09:12:18;;;;;;;11.88;5.00;;;26.20;95.30;;;;;;5014974;28;20154;-83
2022/08/21 09:15:13;;;;;;;10.93;5.10;;;26.50;95.60;;;;;;4999594;28;20171;-84
2022/08/21 09:18:06;;;;;;;10.88;4.40;;;26.50;95.70;;;;;;4999090;28;20213;-84
2022/08/21 09:20:44;;;;;;;12.15;4.10;;;27.00;95.10;;;;;;4999695;28;20519;-86
2022/08/21 09:23:13;;;;;;;9.70;4.10;;;27.10;93.90;;;;;;4999283;28;20614;-86
2022/08/21 09:25:55;;;;;;;11.88;4.45;;;26.40;94.60;;;;;;4999036;28;20194;-86
2022/08/21 09:28:21;;;;;;;10.05;5.03;;;27.10;94.50;;;;;;4998817;28;20257;-84
2022/08/21 09:30:46;;;;;;;14.07;5.05;;;27.30;94.40;;;;;;4998312;28;20202;-84
2022/08/21 09:33:15;;;;;;;9.30;4.53;;;27.60;94.10;;;;;;5015946;28;20596;-84
2022/08/21 09:35:52;;;;;;;9.90;4.35;;;26.90;95.30;;;;;;4998586;28;20202;-84
2022/08/21 09:38:33;;;;;;;7.13;3.17;;;27.50;94.50;;;;;;4999960;28;20646;-83
2022/08/21 09:41:06;;;;;;;7.28;2.78;;;26.80;92.50;;;;;;4998714;28;20266;-85
2022/08/21 09:43:33;;;;;;;6.88;3.00;;;26.00;93.60;;;;;;4999799;28;20202;-83
2022/08/21 09:46:19;;;;;;;7.20;3.22;;;25.70;92.50;;;;;;4999026;28;20191;-84
2022/08/21 09:48:47;;;;;;;12.73;3.03;;;26.10;92.60;;;;;;5001181;28;20171;-84
2022/08/21 09:51:20;;;;;;;5.25;2.42;;;26.60;91.90;;;;;;5002697;28;20541;-82
2022/08/21 09:53:51;;;;;;;8.02;3.00;;;27.30;90.50;;;;;;5002379;28;20183;-83
2022/08/21 09:59:19;;;;;;;4.82;2.83;;;27.20;91.60;;;;;;5019592;28;20241;-83
2022/08/21 10:01:49;;;;;;;6.43;2.40;;;27.60;92.10;;;;;;5019190;28;20185;-82
2022/08/21 10:04:19;;;;;;;8.93;2.63;;;27.80;90.40;;;;;;5002363;28;20217;-83
2022/08/21 10:06:44;;;;;;;4.82;2.50;;;27.10;91.20;;;;;;5001469;28;20190;-83
2022/08/21 10:09:14;;;;;;;7.07;2.72;;;27.50;90.20;;;;;;5001981;28;20170;-84
2022/08/21 10:11:42;;;;;;;8.23;2.67;;;27.70;90.10;;;;;;5002202;28;20175;-84
2022/08/21 10:14:24;;;;;;;7.07;2.85;;;27.60;91.30;;;;;;5003307;28;20201;-83
2022/08/21 10:17:14;;;;;;;10.23;2.70;;;28.00;89.70;;;;;;5002332;28;20635;-84
2022/08/21 10:20:11;;;;;;;7.45;2.53;;;27.50;90.90;;;;;;5001231;28;20183;-84
2022/08/21 10:22:43;;;;;;;6.88;2.65;;;27.00;90.70;;;;;;5002293;28;20182;-84
2022/08/21 10:25:23;;;;;;;5.15;2.60;;;27.80;90.40;;;;;;5003625;28;20242;-83
2022/08/21 10:28:00;;;;;;;6.90;2.60;;;28.80;89.20;;;;;;5003841;28;20197;-84
2022/08/21 10:31:02;;;;;;;6.05;2.60;;;27.40;90.10;;;;;;5003852;28;20175;-84
2022/08/21 10:34:00;;;;;;;7.57;2.90;;;27.70;89.20;;;;;;5004145;28;20179;-84
2022/08/21 10:36:45;;;;;;;6.38;2.55;;;27.60;89.50;;;;;;5001376;28;20202;-83
2022/08/21 10:39:31;;;;;;;4.93;2.20;;;27.20;88.90;;;;;;5003331;28;20174;-83
2022/08/21 10:42:09;;;;;;;7.63;2.60;;;27.90;89.90;;;;;;4999671;28;20181;-84
2022/08/21 10:45:00;;;;;;;7.90;2.55;;;27.70;88.50;;;;;;4998901;28;20194;-84
2022/08/21 10:47:41;;;;;;;5.72;2.35;;;27.90;86.70;;;;;;4994016;28;20179;-84
2022/08/21 10:50:43;;;;;;;4.57;2.20;;;27.80;87.20;;;;;;5003925;28;20172;-84
2022/08/21 10:53:11;;;;;;;9.95;2.80;;;27.50;87.10;;;;;;5003611;28;20162;-85
2022/08/21 10:55:44;;;;;;;5.68;2.13;;;27.50;89.60;;;;;;5003335;28;20270;-84
2022/08/21 10:58:25;;;;;;;5.10;2.10;;;27.70;90.00;;;;;;5002920;28;20177;-84
2022/08/21 11:01:07;;;;;;;5.88;2.30;;;27.80;87.70;;;;;;5002671;28;20182;-83
2022/08/21 11:04:04;;;;;;;4.13;2.00;;;28.10;89.30;;;;;;5002717;28;20639;-83
2022/08/21 11:06:32;;;;;;;7.57;2.03;;;27.90;85.70;;;;;;4997746;28;20203;-81
2022/08/21 11:09:11;;;;;;;5.32;2.10;;;28.50;84.90;;;;;;5002392;28;20171;-82
2022/08/21 11:11:46;;;;;;;4.10;1.92;;;29.70;82.70;;;;;;5001414;28;20620;-81
2022/08/21 11:14:35;;;;;;;7.75;2.15;;;30.20;82.10;;;;;;5001709;28;20256;-81
2022/08/21 11:17:09;;;;;;;8.23;2.17;;;30.80;82.60;;;;;;5001763;28;20217;-82
2022/08/21 11:19:42;;;;;;;4.93;1.95;;;31.00;81.50;;;;;;5001561;28;20244;-81
2022/08/21 11:22:18;;;;;;;3.72;1.70;;;29.30;83.00;;;;;;4999329;28;20544;-80
2022/08/21 11:25:08;;;;;;;5.43;1.80;;;29.00;82.70;;;;;;4998744;28;20293;-80
2022/08/21 11:27:42;;;;;;;6.95;2.03;;;29.00;83.70;;;;;;4999927;28;20728;-79
2022/08/21 11:30:09;;;;;;;7.10;2.13;;;28.60;83.50;;;;;;5000529;28;20220;-80
2022/08/21 11:33:00;;;;;;;5.53;2.10;;;28.40;83.30;;;;;;5000236;28;20206;-80
2022/08/21 11:35:46;;;;;;;4.10;1.95;;;27.80;85.70;;;;;;4999860;28;20250;-80
2022/08/21 11:38:21;;;;;;;2.85;1.70;;;28.30;85.90;;;;;;5000099;28;20178;-80
2022/08/21 11:40:56;;;;;;;3.80;2.25;;;28.40;84.60;;;;;;4999562;28;20182;-79
2022/08/21 11:43:35;;;;;;;6.15;2.17;;;28.10;84.20;;;;;;4999839;28;20198;-79
2022/08/21 11:46:14;;;;;;;4.93;1.70;;;28.60;83.40;;;;;;4999447;28;20194;-79
2022/08/21 11:48:51;;;;;;;8.63;1.70;;;28.70;82.30;;;;;;4998805;28;20234;-79
2022/08/21 11:51:31;;;;;;;4.90;2.20;;;28.80;84.30;;;;;;4999785;28;20189;-79
2022/08/21 11:54:09;;;;;;;2.90;1.50;;;28.30;82.60;;;;;;4999030;28;20202;-79
2022/08/21 11:56:42;;;;;;;3.63;1.50;;;28.50;84.00;;;;;;4997775;28;20198;-80
2022/08/21 11:59:32;;;;;;;2.92;1.65;;;29.10;82.30;;;;;;4996923;28;20182;-82
2022/08/21 12:01:59;;;;;;;2.80;1.60;;;28.60;81.60;;;;;;4997358;28;20200;-83
2022/08/21 12:04:32;;;;;;;2.63;1.73;;;28.50;83.60;;;;;;4998247;28;20624;-83
2022/08/21 12:07:27;;;;;;;4.53;1.60;;;28.80;84.30;;;;;;4998626;28;20277;-81
2022/08/21 12:09:55;;;;;;;4.90;1.65;;;28.90;83.60;;;;;;4998241;28;20206;-81
2022/08/21 12:12:36;;;;;;;4.05;1.48;;;28.50;82.40;;;;;;4999606;28;20178;-80
2022/08/21 12:15:20;;;;;;;2.72;1.58;;;28.60;81.30;;;;;;5000368;28;20185;-81
2022/08/21 12:17:52;;;;;;;4.28;1.40;;;27.80;83.70;;;;;;5002055;28;20179;-80
2022/08/21 12:20:34;;;;;;;3.45;1.80;;;28.60;83.40;;;;;;5000274;28;20170;-80
2022/08/21 12:23:09;;;;;;;4.75;1.50;;;28.50;81.00;;;;;;5000653;28;20185;-80
2022/08/21 12:25:44;;;;;;;3.40;1.50;;;28.00;82.40;;;;;;5000761;28;20201;-80
2022/08/21 12:28:13;;;;;;;6.05;1.60;;;27.70;83.90;;;;;;5000638;28;20180;-80
2022/08/21 12:30:45;;;;;;;2.15;1.35;;;27.40;84.10;;;;;;5000500;28;20221;-81
2022/08/21 12:33:23;;;;;;;3.80;1.55;;;27.70;81.80;;;;;;5001535;28;20190;-81
2022/08/21 12:35:51;;;;;;;3.28;1.48;;;27.60;83.00;;;;;;5002069;28;20205;-81
2022/08/21 12:38:49;;;;;;;4.57;1.80;;;27.20;83.70;;;;;;5002434;28;20178;-81
2022/08/21 12:41:24;;;;;;;4.57;1.60;;;26.80;83.80;;;;;;4999397;28;20522;-81
2022/08/21 12:44:13;;;;;;;4.03;1.77;;;26.80;85.00;;;;;;4999330;28;20194;-82
2022/08/21 12:46:50;;;;;;;6.35;2.30;;;26.80;85.40;;;;;;4999898;28;20230;-81
2022/08/21 12:49:36;;;;;;;3.97;1.42;;;26.90;83.20;;;;;;5000328;28;20189;-82
2022/08/21 12:52:16;;;;;;;4.10;1.60;;;27.10;84.90;;;;;;4999697;28;20167;-82
2022/08/21 12:54:45;;;;;;;3.28;1.45;;;26.90;85.60;;;;;;4999777;28;20535;-82
2022/08/21 12:57:27;;;;;;;4.53;1.60;;;26.90;84.70;;;;;;4999557;28;20194;-81
2022/08/21 13:00:00;;;;;;;7.90;1.75;;;26.40;84.90;;;;;;4999705;28;20639;-80